createdAt,value
2022-10-01T00:00:16.307Z,9.20
2022-10-01T00:02:45.182Z,8.13
2022-10-01T00:05:14.591Z,9.13
2022-10-01T00:07:46.474Z,9.27
2022-10-01T00:10:17.156Z,8.68
2022-10-01T00:12:50.073Z,8.68
2022-10-01T00:15:21.807Z,8.63
2022-10-01T00:17:50.416Z,9.15
2022-10-01T00:20:19.190Z,9.30
2022-10-01T00:22:49.246Z,9.10
2022-10-01T00:25:18.783Z,8.43
2022-10-01T00:27:48.048Z,8.45
2022-10-01T00:30:16.951Z,8.73
2022-10-01T00:32:45.635Z,8.98
2022-10-01T00:35:14.678Z,9.48
2022-10-01T00:37:43.851Z,9.48
2022-10-01T00:40:13.769Z,10.02
2022-10-01T00:42:42.360Z,11.02
2022-10-01T00:45:13.767Z,10.32
2022-10-01T00:47:47.158Z,10.85
2022-10-01T00:50:21.701Z,9.77
2022-10-01T00:52:55.573Z,10.50
2022-10-01T00:55:29.817Z,10.57
2022-10-01T00:57:59.887Z,10.38
2022-10-01T01:00:28.653Z,10.57
2022-10-01T01:02:58.269Z,11.05
2022-10-01T01:05:27.178Z,10.43
2022-10-01T01:07:56.182Z,11.52
2022-10-01T01:10:35.622Z,10.05
2022-10-01T01:13:14.050Z,10.30
2022-10-01T01:15:50.618Z,10.38
2022-10-01T01:18:30.398Z,11.45
2022-10-01T01:21:14.165Z,10.25
2022-10-01T01:24:07.171Z,9.55
2022-10-01T01:26:47.302Z,10.05
2022-10-01T01:29:24.567Z,9.90
2022-10-01T01:31:58.847Z,10.35
2022-10-01T01:34:31.375Z,11.52
2022-10-01T01:37:05.979Z,11.20
2022-10-01T01:39:36.746Z,10.63
2022-10-01T01:42:15.322Z,11.30
2022-10-01T01:44:47.920Z,10.35
2022-10-01T01:47:22.151Z,11.95
2022-10-01T01:49:52.698Z,11.13
2022-10-01T01:52:21.583Z,12.27
2022-10-01T01:54:52.487Z,13.35
2022-10-01T01:57:22.101Z,12.00
2022-10-01T01:59:52.365Z,12.85
2022-10-01T02:02:26.417Z,12.50
2022-10-01T02:04:59.551Z,12.02
2022-10-01T02:07:55.876Z,11.35
2022-10-01T02:10:37.924Z,13.32
2022-10-01T02:13:20.687Z,12.02
2022-10-01T02:16:01.502Z,13.32
2022-10-01T02:18:39.912Z,11.47
2022-10-01T02:21:17.126Z,11.85
2022-10-01T02:23:52.156Z,11.60
2022-10-01T02:26:24.514Z,12.05
2022-10-01T02:28:59.699Z,11.82
2022-10-01T02:31:30.766Z,11.43
2022-10-01T02:34:02.037Z,11.27
2022-10-01T02:36:34.295Z,11.60
2022-10-01T02:39:04.585Z,12.10
2022-10-01T02:41:36.696Z,12.98
2022-10-01T02:44:08.894Z,11.30
2022-10-01T02:49:13.571Z,10.32
2022-10-01T02:51:51.314Z,11.20
2022-10-01T02:54:27.107Z,12.48
2022-10-01T02:57:13.420Z,11.57
2022-10-01T02:59:42.351Z,12.77
2022-10-01T03:02:13.149Z,11.63
2022-10-01T03:04:41.538Z,12.32
2022-10-01T03:07:13.216Z,12.93
2022-10-01T03:09:41.878Z,12.18
2022-10-01T03:12:11.066Z,11.85
2022-10-01T03:14:40.483Z,11.85
2022-10-01T03:17:09.241Z,11.55
2022-10-01T03:19:39.071Z,11.85
2022-10-01T03:22:08.019Z,12.40
2022-10-01T03:24:36.512Z,12.93
2022-10-01T03:27:05.147Z,12.55
2022-10-01T03:29:33.682Z,12.57
2022-10-01T03:32:02.797Z,11.65
2022-10-01T03:34:32.593Z,12.13
2022-10-01T03:37:02.819Z,12.13
2022-10-01T03:39:31.692Z,12.35
2022-10-01T03:42:00.461Z,12.48
2022-10-01T03:44:29.348Z,12.93
2022-10-01T03:46:58.360Z,12.05
2022-10-01T03:49:27.560Z,14.10
2022-10-01T03:51:56.795Z,12.65
2022-10-01T03:54:27.018Z,12.80
2022-10-01T03:56:55.406Z,13.65
2022-10-01T03:59:24.077Z,13.98
2022-10-01T04:01:53.136Z,12.88
2022-10-01T04:04:22.004Z,12.57
2022-10-01T04:06:51.066Z,11.13
2022-10-01T04:09:19.831Z,12.77
2022-10-01T04:11:49.839Z,12.90
2022-10-01T04:14:20.076Z,11.98
2022-10-01T04:16:52.735Z,12.45
2022-10-01T04:19:21.828Z,11.90
2022-10-01T04:21:50.749Z,11.65
2022-10-01T04:24:20.006Z,12.63
2022-10-01T04:26:52.477Z,11.68
2022-10-01T04:29:21.356Z,12.77
2022-10-01T04:31:50.290Z,11.80
2022-10-01T04:34:19.028Z,11.63
2022-10-01T04:36:48.519Z,13.65
2022-10-01T04:39:17.527Z,11.93
2022-10-01T04:41:46.226Z,11.75
2022-10-01T04:44:17.239Z,12.80
2022-10-01T04:46:46.728Z,10.60
2022-10-01T04:49:16.257Z,12.90
2022-10-01T04:51:45.836Z,11.65
2022-10-01T04:54:14.917Z,12.13
2022-10-01T04:56:43.678Z,11.43
2022-10-01T04:59:12.322Z,11.75
2022-10-01T05:01:42.993Z,12.45
2022-10-01T05:04:11.928Z,12.57
2022-10-01T05:06:42.620Z,11.30
2022-10-01T05:09:11.207Z,10.73
2022-10-01T05:11:40.447Z,11.15
2022-10-01T05:14:09.119Z,11.55
2022-10-01T05:16:38.163Z,11.55
2022-10-01T05:19:08.885Z,11.48
2022-10-01T05:21:38.543Z,11.20
2022-10-01T05:24:07.576Z,10.77
2022-10-01T05:26:37.769Z,11.60
2022-10-01T05:29:07.044Z,12.18
2022-10-01T05:31:36.128Z,11.77
2022-10-01T05:34:05.379Z,11.23
2022-10-01T05:36:35.568Z,12.73
2022-10-01T05:39:06.075Z,12.82
2022-10-01T05:41:35.229Z,10.93
2022-10-01T05:44:04.260Z,12.00
2022-10-01T05:46:33.217Z,11.10
2022-10-01T05:49:02.099Z,12.98
2022-10-01T05:51:31.607Z,11.57
2022-10-01T05:54:04.735Z,11.15
2022-10-01T05:56:33.376Z,12.32
2022-10-01T05:59:04.245Z,11.73
2022-10-01T06:01:33.912Z,11.15
2022-10-01T06:04:03.953Z,11.60
2022-10-01T06:06:32.789Z,10.57
2022-10-01T06:09:02.760Z,10.68
2022-10-01T06:11:31.547Z,10.68
2022-10-01T06:14:01.047Z,11.43
2022-10-01T06:16:29.950Z,10.65
2022-10-01T06:19:00.683Z,11.40
2022-10-01T06:21:30.827Z,11.77
2022-10-01T06:23:59.784Z,11.30
2022-10-01T06:26:29.813Z,11.45
2022-10-01T06:28:58.584Z,11.70
2022-10-01T06:31:27.422Z,11.45
2022-10-01T06:33:58.980Z,11.05
2022-10-01T06:36:27.968Z,11.43
2022-10-01T06:38:56.796Z,11.40
2022-10-01T06:41:26.354Z,10.48
2022-10-01T06:43:56.654Z,10.23
2022-10-01T06:46:25.599Z,10.73
2022-10-01T06:48:54.581Z,11.00
2022-10-01T06:51:43.503Z,10.88
2022-10-01T06:54:11.371Z,10.80
2022-10-01T06:56:40.262Z,10.73
2022-10-01T06:59:10.880Z,10.38
2022-10-01T07:01:40.037Z,12.18
2022-10-01T07:04:08.647Z,10.48
2022-10-01T07:06:37.409Z,10.75
2022-10-01T07:09:06.010Z,10.02
2022-10-01T07:11:35.183Z,10.70
2022-10-01T07:14:03.966Z,9.55
2022-10-01T07:16:34.097Z,10.77
2022-10-01T07:19:03.336Z,9.63
2022-10-01T07:21:32.318Z,9.60
2022-10-01T07:24:01.305Z,8.52
2022-10-01T07:26:30.428Z,10.02
2022-10-01T07:28:59.858Z,9.35
2022-10-01T07:31:28.967Z,10.50
2022-10-01T07:33:59.931Z,9.02
2022-10-01T07:36:28.878Z,8.35
2022-10-01T07:38:59.571Z,8.75
2022-10-01T07:41:28.169Z,8.27
2022-10-01T07:44:35.390Z,7.72
2022-10-01T07:47:05.124Z,7.97
2022-10-01T07:49:35.256Z,8.13
2022-10-01T07:52:09.662Z,9.18
2022-10-01T07:54:41.231Z,7.95
2022-10-01T07:57:09.924Z,7.80
2022-10-01T07:59:40.667Z,6.88
2022-10-01T08:02:16.858Z,6.97
2022-10-01T08:05:06.512Z,6.88
2022-10-01T08:07:36.021Z,6.65
2022-10-01T08:10:05.834Z,6.95
2022-10-01T08:12:34.499Z,7.07
2022-10-01T08:15:03.816Z,7.07
2022-10-01T08:17:32.617Z,6.65
2022-10-01T08:20:03.405Z,6.47
2022-10-01T08:22:32.598Z,6.82
2022-10-01T08:25:01.544Z,7.80
2022-10-01T08:27:30.451Z,7.97
2022-10-01T08:29:59.151Z,6.95
2022-10-01T08:32:28.593Z,7.35
2022-10-01T08:34:59.201Z,7.10
2022-10-01T08:37:30.957Z,7.63
2022-10-01T08:39:59.814Z,8.43
2022-10-01T08:42:47.748Z,7.80
2022-10-01T08:45:22.674Z,7.70
2022-10-01T08:47:59.825Z,8.10
2022-10-01T08:50:37.600Z,7.85
2022-10-01T08:53:15.648Z,7.68
2022-10-01T08:55:45.351Z,6.65
2022-10-01T08:58:20.431Z,7.30
2022-10-01T09:00:51.203Z,7.93
2022-10-01T09:03:20.823Z,7.75
2022-10-01T09:06:05.147Z,7.45
2022-10-01T09:08:47.935Z,7.85
2022-10-01T09:11:29.745Z,7.80
2022-10-01T09:14:09.860Z,6.93
2022-10-01T09:16:48.255Z,7.68
2022-10-01T09:19:38.120Z,7.30
2022-10-01T09:22:26.375Z,6.90
2022-10-01T09:25:04.712Z,6.32
2022-10-01T09:27:35.060Z,6.25
2022-10-01T09:30:08.560Z,5.93
2022-10-01T09:32:42.165Z,5.90
2022-10-01T09:35:25.756Z,5.90
2022-10-01T09:37:58.899Z,6.45
2022-10-01T09:40:37.490Z,7.13
2022-10-01T09:43:08.556Z,5.68
2022-10-01T09:45:39.129Z,5.00
2022-10-01T09:48:19.865Z,4.80
2022-10-01T09:50:55.826Z,4.20
2022-10-01T09:53:32.040Z,4.30
2022-10-01T09:56:11.860Z,4.28
2022-10-01T09:58:44.524Z,4.22
2022-10-01T10:01:22.119Z,3.85
2022-10-01T10:03:59.443Z,4.15
2022-10-01T10:06:31.645Z,3.80
2022-10-01T10:09:02.936Z,3.80
2022-10-01T10:11:34.547Z,4.40
2022-10-01T10:14:04.800Z,3.60
2022-10-01T10:16:37.541Z,4.18
2022-10-01T10:19:10.508Z,3.80
2022-10-01T10:21:39.526Z,3.60
2022-10-01T10:24:25.070Z,4.10
2022-10-01T10:27:04.618Z,4.97
2022-10-01T10:29:35.956Z,4.85
2022-10-01T10:32:10.567Z,4.68
2022-10-01T10:34:45.889Z,4.85
2022-10-01T10:37:17.163Z,4.97
2022-10-01T10:39:53.411Z,5.47
2022-10-01T10:42:25.484Z,5.63
2022-10-01T10:47:28.576Z,4.72
2022-10-01T10:50:00.432Z,5.00
2022-10-01T10:52:34.019Z,5.57
2022-10-01T10:55:20.438Z,5.57
2022-10-01T10:57:54.417Z,4.85
2022-10-01T11:00:29.903Z,5.65
2022-10-01T11:03:01.695Z,5.38
2022-10-01T11:05:33.180Z,6.00
2022-10-01T11:08:05.867Z,5.93
2022-10-01T11:10:45.856Z,6.03
2022-10-01T11:13:36.502Z,5.70
2022-10-01T11:16:34.775Z,6.20
2022-10-01T11:19:20.704Z,5.88
2022-10-01T11:22:06.664Z,6.25
2022-10-01T11:24:50.985Z,7.15
2022-10-01T11:27:28.460Z,7.10
2022-10-01T11:30:09.822Z,7.72
2022-10-01T11:32:45.605Z,7.35
2022-10-01T11:35:27.021Z,6.20
2022-10-01T11:38:15.529Z,6.28
2022-10-01T11:40:47.815Z,6.68
2022-10-01T11:43:22.699Z,6.53
2022-10-01T11:45:56.677Z,8.15
2022-10-01T11:48:32.301Z,7.75
2022-10-01T11:51:05.434Z,7.65
2022-10-01T11:53:40.265Z,8.43
2022-10-01T11:56:32.267Z,6.80
2022-10-01T11:59:07.057Z,8.88
2022-10-01T12:01:41.503Z,11.18
2022-10-01T12:04:25.446Z,10.10
2022-10-01T12:07:00.658Z,8.65
2022-10-01T12:09:38.010Z,10.65
2022-10-01T12:12:11.488Z,28.95
2022-10-01T12:14:47.562Z,25.08
2022-10-01T12:17:25.013Z,17.05
2022-10-01T12:19:57.768Z,10.07
2022-10-01T12:22:31.372Z,8.82
2022-10-01T12:25:00.700Z,7.25
2022-10-01T12:27:49.172Z,7.18
2022-10-01T12:30:21.449Z,7.35
2022-10-01T12:33:06.055Z,7.35
2022-10-01T12:35:51.182Z,7.05
2022-10-01T12:38:33.783Z,6.97
2022-10-01T12:41:13.496Z,6.93
2022-10-01T12:44:06.911Z,6.57
2022-10-01T12:46:43.880Z,6.85
2022-10-01T12:49:24.932Z,6.90
2022-10-01T12:51:59.560Z,6.45
2022-10-01T12:54:45.879Z,7.43
2022-10-01T12:57:29.203Z,6.53
2022-10-01T13:00:08.173Z,6.50
2022-10-01T13:03:09.353Z,7.15
2022-10-01T13:05:48.150Z,6.85
2022-10-01T13:08:30.732Z,6.43
2022-10-01T13:11:10.283Z,6.47
2022-10-01T13:13:39.323Z,6.80
2022-10-01T13:16:13.534Z,6.22
2022-10-01T13:18:54.837Z,6.93
2022-10-01T13:21:33.662Z,6.28
2022-10-01T13:24:09.651Z,6.53
2022-10-01T13:26:46.150Z,5.85
2022-10-01T13:29:32.330Z,6.57
2022-10-01T13:32:02.807Z,5.65
2022-10-01T13:34:40.840Z,5.93
2022-10-01T13:37:33.240Z,6.25
2022-10-01T13:42:38.587Z,5.60
2022-10-01T13:45:11.797Z,5.82
2022-10-01T13:47:42.491Z,6.28
2022-10-01T13:50:24.027Z,7.13
2022-10-01T13:53:07.540Z,6.57
2022-10-01T13:55:36.438Z,5.95
2022-10-01T13:58:06.878Z,6.43
2022-10-01T14:00:35.888Z,6.82
2022-10-01T14:03:08.633Z,6.63
2022-10-01T14:05:40.035Z,6.55
2022-10-01T14:08:18.133Z,6.05
2022-10-01T14:11:11.623Z,6.50
2022-10-01T14:14:05.436Z,5.95
2022-10-01T14:16:38.801Z,6.07
2022-10-01T14:19:08.238Z,6.10
2022-10-01T14:21:56.105Z,6.20
2022-10-01T14:24:34.278Z,6.35
2022-10-01T14:27:12.137Z,5.93
2022-10-01T14:29:56.016Z,6.75
2022-10-01T14:32:36.657Z,6.68
2022-10-01T14:35:27.826Z,6.85
2022-10-01T14:38:01.064Z,6.97
2022-10-01T14:40:39.216Z,7.90
2022-10-01T14:43:18.444Z,7.68
2022-10-01T14:45:53.359Z,7.57
2022-10-01T14:48:23.208Z,7.53
2022-10-01T14:50:55.622Z,6.78
2022-10-01T14:53:28.560Z,6.63
2022-10-01T14:56:04.651Z,7.25
2022-10-01T14:58:37.222Z,7.90
2022-10-01T15:01:07.533Z,7.35
2022-10-01T15:03:40.469Z,7.72
2022-10-01T15:06:14.795Z,7.35
2022-10-01T15:08:46.270Z,9.43
2022-10-01T15:11:21.224Z,10.75
2022-10-01T15:13:52.422Z,9.43
2022-10-01T15:16:24.435Z,8.85
2022-10-01T15:18:57.093Z,9.00
2022-10-01T15:21:37.574Z,9.70
2022-10-01T15:24:09.599Z,10.55
2022-10-01T15:29:14.152Z,9.05
2022-10-01T15:31:43.317Z,9.52
2022-10-01T15:34:14.775Z,8.38
2022-10-01T15:36:44.812Z,7.97
2022-10-01T15:39:27.338Z,8.35
2022-10-01T15:41:58.416Z,8.38
2022-10-01T15:44:46.428Z,8.70
2022-10-01T15:47:36.273Z,8.07
2022-10-01T15:50:22.184Z,9.95
2022-10-01T15:52:58.502Z,10.70
2022-10-01T15:55:33.683Z,10.27
2022-10-01T15:58:15.238Z,9.45
2022-10-01T16:00:59.877Z,8.13
2022-10-01T16:03:32.752Z,7.65
2022-10-01T16:06:03.595Z,7.78
2022-10-01T16:08:35.685Z,7.28
2022-10-01T16:11:20.439Z,7.72
2022-10-01T16:13:51.638Z,6.45
2022-10-01T16:16:29.149Z,6.53
2022-10-01T16:19:20.592Z,7.03
2022-10-01T16:22:14.977Z,6.63
2022-10-01T16:24:45.585Z,6.30
2022-10-01T16:27:18.337Z,6.57
2022-10-01T16:29:55.394Z,7.15
2022-10-01T16:32:24.255Z,7.75
2022-10-01T16:34:53.169Z,7.70
2022-10-01T16:37:21.761Z,7.50
2022-10-01T16:39:50.599Z,6.85
2022-10-01T16:42:24.712Z,8.10
2022-10-01T16:44:56.640Z,8.15
2022-10-01T16:47:25.321Z,7.72
2022-10-01T16:49:54.207Z,7.88
2022-10-01T16:52:23.982Z,7.80
2022-10-01T16:54:52.719Z,8.13
2022-10-01T16:57:24.224Z,8.07
2022-10-01T16:59:53.218Z,8.48
2022-10-01T17:02:23.326Z,9.88
2022-10-01T17:04:52.321Z,8.25
2022-10-01T17:07:21.344Z,9.10
2022-10-01T17:09:50.193Z,9.77
2022-10-01T17:12:19.431Z,9.57
2022-10-01T17:14:48.110Z,9.90
2022-10-01T17:17:16.574Z,9.32
2022-10-01T17:19:46.676Z,10.93
2022-10-01T17:22:15.287Z,11.27
2022-10-01T17:24:44.166Z,12.02
2022-10-01T17:27:13.189Z,14.27
2022-10-01T17:29:42.484Z,17.67
2022-10-01T17:32:12.553Z,17.13
2022-10-01T17:34:41.687Z,18.30
2022-10-01T17:37:11.879Z,16.10
2022-10-01T17:39:41.249Z,14.20
2022-10-01T17:42:10.009Z,17.48
2022-10-01T17:44:38.491Z,13.85
2022-10-01T17:47:07.391Z,11.13
2022-10-01T17:49:36.291Z,9.80
2022-10-01T17:52:06.229Z,9.43
2022-10-01T17:54:37.561Z,9.68
2022-10-01T17:57:07.220Z,9.48
2022-10-01T17:59:35.801Z,9.55
2022-10-01T18:02:18.665Z,9.50
2022-10-01T18:04:53.949Z,9.27
2022-10-01T18:07:22.914Z,9.38
2022-10-01T18:09:53.998Z,9.85
2022-10-01T18:12:22.830Z,9.60
2022-10-01T18:14:52.133Z,9.30
2022-10-01T18:17:20.780Z,8.75
2022-10-01T18:19:54.072Z,8.52
2022-10-01T18:22:23.381Z,8.45
2022-10-01T18:24:54.582Z,8.60
2022-10-01T18:27:23.723Z,10.07
2022-10-01T18:29:52.626Z,11.13
2022-10-01T18:32:23.070Z,11.48
2022-10-01T18:34:56.106Z,11.70
2022-10-01T18:37:37.794Z,13.40
2022-10-01T18:40:13.934Z,11.70
2022-10-01T18:42:47.857Z,12.98
2022-10-01T18:45:19.501Z,12.18
2022-10-01T18:50:36.109Z,11.70
2022-10-01T18:53:21.575Z,12.40
2022-10-01T18:56:09.297Z,10.90
2022-10-01T18:59:13.865Z,11.75
2022-10-01T19:01:55.135Z,15.68
2022-10-01T19:05:05.230Z,18.20
2022-10-01T19:07:44.177Z,20.08
2022-10-01T19:10:24.462Z,25.27
2022-10-01T19:13:02.871Z,27.40
2022-10-01T19:15:45.261Z,25.50
2022-10-01T19:18:30.235Z,20.30
2022-10-01T19:21:09.580Z,17.30
2022-10-01T19:24:05.701Z,14.15
2022-10-01T19:26:42.795Z,15.23
2022-10-01T19:29:28.909Z,17.05
2022-10-01T19:32:01.283Z,15.10
2022-10-01T19:34:35.518Z,15.95
2022-10-01T19:37:30.241Z,15.75
2022-10-01T19:40:20.828Z,15.18
2022-10-01T19:42:55.509Z,15.30
2022-10-01T19:45:31.118Z,14.23
2022-10-01T19:48:09.268Z,13.70
2022-10-01T19:50:42.153Z,14.40
2022-10-01T19:53:20.427Z,13.98
2022-10-01T19:55:51.876Z,14.32
2022-10-01T19:58:22.180Z,13.30
2022-10-01T20:00:57.593Z,13.43
2022-10-01T20:03:38.660Z,13.50
2022-10-01T20:06:16.319Z,12.57
2022-10-01T20:08:52.879Z,14.05
2022-10-01T20:11:28.447Z,13.95
2022-10-01T20:14:37.854Z,16.38
2022-10-01T20:17:21.991Z,14.57
2022-10-01T20:19:57.488Z,16.42
2022-10-01T20:22:35.297Z,19.77
2022-10-01T20:25:13.638Z,20.13
2022-10-01T20:27:50.362Z,20.77
2022-10-01T20:30:21.971Z,17.45
2022-10-01T20:33:02.964Z,16.08
2022-10-01T20:35:38.517Z,18.00
2022-10-01T20:38:12.231Z,18.05
2022-10-01T20:40:49.759Z,17.70
2022-10-01T20:43:23.718Z,17.00
2022-10-01T20:45:55.211Z,15.38
2022-10-01T20:48:33.961Z,14.30
2022-10-01T20:51:08.549Z,14.48
2022-10-01T20:53:46.176Z,13.15
2022-10-01T20:56:18.609Z,12.25
2022-10-01T20:58:54.128Z,12.60
2022-10-01T21:01:26.151Z,13.57
2022-10-01T21:04:03.018Z,12.73
2022-10-01T21:06:36.069Z,12.70
2022-10-01T21:09:11.764Z,13.00
2022-10-01T21:11:46.370Z,13.35
2022-10-01T21:14:22.299Z,13.25
2022-10-01T21:17:06.082Z,13.07
2022-10-01T21:19:53.292Z,14.82
2022-10-01T21:22:36.533Z,13.73
2022-10-01T21:25:16.766Z,14.18
2022-10-01T21:27:59.740Z,13.00
2022-10-01T21:30:37.618Z,11.02
2022-10-01T21:33:15.398Z,10.43
2022-10-01T21:35:52.099Z,9.57
2022-10-01T21:38:32.186Z,9.27
2022-10-01T21:41:24.351Z,8.38
2022-10-01T21:46:49.862Z,8.30
2022-10-01T21:49:31.088Z,7.38
2022-10-01T21:52:11.058Z,7.20
2022-10-01T21:54:55.298Z,7.13
2022-10-01T21:57:38.945Z,6.95
2022-10-01T22:00:18.152Z,6.80
2022-10-01T22:03:01.647Z,6.93
2022-10-01T22:05:38.130Z,6.38
2022-10-01T22:08:22.024Z,6.60
2022-10-01T22:10:53.017Z,5.57
2022-10-01T22:13:25.166Z,5.97
2022-10-01T22:15:59.992Z,5.53
2022-10-01T22:18:35.527Z,5.47
2022-10-01T22:21:09.126Z,5.30
2022-10-01T22:23:43.767Z,5.45
2022-10-01T22:26:19.181Z,5.63
2022-10-01T22:28:51.401Z,4.75
2022-10-01T22:31:24.064Z,4.57
2022-10-01T22:33:56.863Z,4.55
2022-10-01T22:36:32.197Z,4.53
2022-10-01T22:39:06.022Z,4.60
2022-10-01T22:41:39.133Z,4.13
2022-10-01T22:44:14.112Z,4.70
2022-10-01T22:47:21.612Z,4.35
2022-10-01T22:50:03.159Z,3.88
2022-10-01T22:52:39.758Z,4.00
2022-10-01T22:55:26.481Z,3.88
2022-10-01T22:58:10.369Z,4.10
2022-10-01T23:00:51.386Z,4.22
2022-10-01T23:03:34.114Z,3.88
2022-10-01T23:06:11.516Z,3.70
2022-10-01T23:08:46.708Z,3.67
2022-10-01T23:11:27.913Z,3.58
2022-10-01T23:14:06.743Z,3.65
2022-10-01T23:16:45.616Z,3.20
2022-10-01T23:19:30.215Z,3.35
2022-10-01T23:22:09.270Z,3.15
2022-10-01T23:24:52.973Z,3.30
2022-10-01T23:27:35.909Z,3.25
2022-10-01T23:30:10.340Z,3.40
2022-10-01T23:33:06.121Z,3.70
2022-10-01T23:35:48.343Z,3.10
2022-10-01T23:38:33.206Z,3.35
2022-10-01T23:41:10.721Z,3.45
2022-10-01T23:43:47.013Z,3.80
2022-10-01T23:46:19.156Z,3.72
2022-10-01T23:48:54.371Z,3.78
2022-10-01T23:51:26.720Z,3.47
2022-10-01T23:59:25.131Z,3.65
